METAR、SPECI、TAF(飛行場実況・予報)


■ METAR、SPECI(飛行場実況)

METAR RJFR 121900Z AUTO 11006KT 9999 NSC 21/19 Q1003 RMK A2964
METAR RJFR 122000Z AUTO 09006KT 9999 NSC 22/19 Q1004 RMK A2966
METAR RJFR 122100Z 09004KT 9999 FEW015 SCT/// 22/20 Q1004 RMK 1CU015 A2966
METAR RJFR 122200Z 10004KT 9999 FEW015 SCT/// 22/20 Q1004 RMK 1CU015 A2966
METAR RJFR 122300Z 10005KT 9999 FEW020 23/20 Q1004 RMK 1CU020 A2967
METAR RJFR 130000Z 09006KT 9999 FEW015 23/20 Q1005 RMK 1CU015 A2969
METAR RJFR 130100Z 08005KT 050V120 9999 FEW020 24/20 Q1005 RMK 1CU020 A2968
METAR RJFR 130200Z 10004KT 070V140 9999 FEW020 24/21 Q1004 RMK 1CU020 A2967
METAR RJFR 130300Z 12005KT 9999 FEW030 24/21 Q1004 RMK 1CU030 A2966
METAR RJFR 130400Z 11004KT 9999 FEW030 26/21 Q1004 RMK 1CU030 A2965
METAR RJFR 130500Z 09005KT 9999 FEW030 26/20 Q1003 RMK 1CU030 A2964
METAR RJFR 130600Z 08004KT 9999 FEW030 27/20 Q1003 RMK 1CU030 A2964
METAR RJFR 130700Z 07006KT 9999 FEW030 27/21 Q1003 RMK 1CU030 A2964
METAR RJFR 130700Z 07006KT 9999 FEW030 27/21 Q1003 RMK 1CU030 A2964
METAR RJFR 130800Z 04004KT 350V090 9999 FEW030 26/20 Q1003 RMK 1CU030 A2964
METAR RJFR 130900Z 03003KT 350V070 9999 FEW030 26/19 Q1004 RMK 1CU030 A2965
METAR RJFR 131000Z 09002KT 9999 FEW030 27/18 Q1004 RMK 1CU030 A2966
METAR RJFR 131100Z VRB02KT 9999 FEW030 25/19 Q1004 RMK 1CU030 A2967
METAR RJFR 131200Z 15004KT 9999 FEW030 24/20 Q1005 RMK 1CU030 A2970
METAR RJFR 131300Z 05005KT 010V090 9999 FEW030 24/21 Q1006 RMK 1CU030 A2972
METAR RJFR 131400Z 07009KT 9999 FEW030 23/21 Q1006 RMK 1CU030 A2972
METAR RJFR 131500Z AUTO 05008KT 9999 NCD 23/20 Q1006 RMK A2971
METAR RJFR 131600Z AUTO 09006KT 9999 NCD 23/20 Q1006 RMK A2971
METAR RJFR 131700Z AUTO 10007KT 9999 NCD 22/19 Q1005 RMK A2970
METAR RJFR 131800Z AUTO 09006KT 9999 NCD 22/20 Q1006 RMK A2972
METAR RJFR 131900Z AUTO 07008KT 9999 NCD 22/20 Q1006 RMK A2973
METAR RJFR 132000Z AUTO 06007KT 9999 NCD 22/20 Q1007 RMK A2974
METAR RJFR 132100Z 10005KT 9999 FEW012 22/21 Q1007 RMK 1CU012 A2975
METAR RJFR 132200Z 07004KT 350V110 9999 FEW010 23/21 Q1007 RMK 2CU010 A2976
METAR RJFR 132300Z 08008KT 9999 FEW010 SCT/// 23/21 Q1007 RMK 1CU010 A2976
METAR RJFR 140000Z 08007KT 9999 FEW015 24/21 Q1007 RMK 1CU015 A2976
METAR RJFR 140100Z 08007KT 9999 FEW015 SCT/// 24/21 Q1007 RMK 1CU015 A2976
METAR RJFR 140200Z 09010KT 9999 FEW010 SCT090 24/21 Q1007 RMK 1CU010 3AC090 A2975
METAR RJFR 140300Z 11008KT 9999 FEW030 25/21 Q1007 RMK 1CU030 A2974
METAR RJFR 140400Z 10007KT 9999 FEW030 25/22 Q1006 RMK 1CU030 A2972
METAR RJFR 140500Z 10006KT 9999 FEW030 25/21 Q1005 RMK 1CU030 A2970
METAR RJFR 140600Z 07007KT 9999 FEW030 SCT/// 25/22 Q1005 RMK 1CU030 A2969
METAR RJFR 140700Z 08011KT 9999 FEW030 SCT090 BKN/// 25/21 Q1004 RMK 1CU030 3AC090 A2967
METAR RJFR 140800Z 08012KT 9999 FEW030 SCT100 BKN/// 25/21 Q1004 RMK 1CU030 4AC100 A2967
METAR RJFR 140900Z 07013KT 9999 FEW030 BKN090 24/21 Q1005 RMK 1CU030 6AC090 A2968
METAR RJFR 141000Z 07015KT 9999 FEW040 SCT120 BKN/// 24/20 Q1005 RMK 1CU040 3AC120 A2968
METAR RJFR 141100Z 08013KT 9999 FEW040 BKN080 BKN/// 24/20 Q1005 RMK 1CU040 5AC080 A2969
METAR RJFR 141200Z 08013KT 9999 FEW040 BKN100 BKN/// 23/20 Q1005 RMK 1CU040 5AC100 A2969
METAR RJFR 141300Z 09010KT 9999 FEW040 SCT100 BKN/// 23/21 Q1006 RMK 1CU040 3AC100 A2971
METAR RJFR 141400Z 09008KT 9999 FEW040 SCT100 BKN/// 23/21 Q1006 RMK 1CU040 3AC100 A2971
METAR RJFR 141500Z AUTO 10004KT 070V140 9999 NSC 23/21 Q1005 RMK A2970
METAR RJFR 141600Z AUTO 08006KT 9999 NSC 23/21 Q1005 RMK A2969
METAR RJFR 141700Z AUTO 08005KT 9999 NSC 23/21 Q1005 RMK A2969
METAR RJFR 141800Z AUTO 08008KT 9999 NSC 23/21 Q1004 RMK A2967
METAR RJFR 141900Z AUTO 09008KT 9999 NSC 23/21 Q1005 RMK A2968
METAR RJFR 142000Z AUTO 07007KT 9999 FEW048 SCT210 BKN220 22/21 Q1004 RMK A2967
METAR RJFR 142100Z 08009KT 9999 FEW008 BKN/// 22/21 Q1004 RMK 1ST008 A2967
METAR RJFR 142200Z 09009KT 9999 FEW001 BKN/// 23/20 Q1004 RMK 1ST001 A2967
METAR RJFR 142300Z 09007KT 9999 FEW005 BKN/// 24/21 Q1004 RMK 1ST005 A2967
METAR RJFR 150000Z 08009KT 9999 FEW015 SCT040 BKN/// 24/20 Q1004 RMK 1CU015 3CU040 A2967
METAR RJFR 150100Z 09011KT 9999 FEW015 SCT170 BKN/// 24/20 Q1004 RMK 1CU015 3AC170 A2965
METAR RJFR 150200Z 09013KT 9999 FEW020 BKN/// 25/20 Q1003 RMK 1CU020 A2964
METAR RJFR 150300Z 09012KT 9999 FEW025 BKN/// 25/20 Q1003 RMK 1CU025 A2964
METAR RJFR 150400Z 10010KT 9999 FEW030 BKN/// 25/20 Q1003 RMK 1CU030 A2963
METAR RJFR 150500Z 08010KT 9999 FEW030 BKN/// 24/20 Q1002 RMK 1CU030 A2960
METAR RJFR 150600Z 08008KT 9999 FEW030 BKN/// 26/20 Q1002 RMK 1CU030 A2960
METAR RJFR 150700Z 09008KT 9999 FEW025 BKN/// 25/20 Q1002 RMK 1CU025 A2959
METAR RJFR 150800Z 10007KT 9999 FEW020 BKN/// 25/20 Q1001 RMK 1CU020 A2958
METAR RJFR 150900Z 09007KT 9999 FEW030 BKN/// 24/20 Q1001 RMK 1CU030 A2959
METAR RJFR 151000Z 08006KT 060V140 9999 FEW030 BKN/// 24/20 Q1002 RMK 1CU030 A2959
METAR RJFR 151100Z 07004KT 040V100 9999 FEW030 SCT/// 23/21 Q1002 RMK 1CU030 A2961
METAR RJFR 151200Z VRB02KT 9999 FEW030 BKN/// 23/20 Q1003 RMK 1CU030 A2963
METAR RJFR 151300Z 35004KT 9999 FEW030 SCT050 BKN070 23/20 Q1004 RMK 1CU030 3SC050 5AC070 A2965

■ TAF(飛行場予報)

TAF RJFR 151105Z 1512/1618 28004KT 9999 FEW015
         BECMG 1515/1517 25006KT
         BECMG 1521/1523 32012KT

お知らせ

新着情報

  • 太陽光発電量推算
  • 気象予報士試験過去問・講座
  • Yahoo Weather shop
  • メルカリ Weather shop
  • BASE Weather shop

ご案内